地図

経路データ

SID SEASON NUMBER BASIN SUBBASIN NAME ISO_TIME NATURE LAT LON WMO_WIND WMO_PRES WMO_AGENCY TRACK_TYPE DIST2LAND LANDFALL IFLAG USA_AGENCY USA_ATCF_ID USA_LAT USA_LON USA_RECORD USA_STATUS USA_WIND USA_PRES USA_SSHS USA_R34_NE USA_R34_SE USA_R34_SW USA_R34_NW USA_R50_NE USA_R50_SE USA_R50_SW USA_R50_NW USA_R64_NE USA_R64_SE USA_R64_SW USA_R64_NW USA_POCI USA_ROCI USA_RMW USA_EYE TOKYO_LAT TOKYO_LON TOKYO_GRADE TOKYO_WIND TOKYO_PRES TOKYO_R50_DIR TOKYO_R50_LONG TOKYO_R50_SHORT TOKYO_R30_DIR TOKYO_R30_LONG TOKYO_R30_SHORT TOKYO_LAND CMA_LAT CMA_LON CMA_CAT CMA_WIND CMA_PRES HKO_LAT HKO_LON HKO_CAT HKO_WIND HKO_PRES NEWDELHI_LAT NEWDELHI_LON NEWDELHI_GRADE NEWDELHI_WIND NEWDELHI_PRES NEWDELHI_CI NEWDELHI_DP NEWDELHI_POCI REUNION_LAT REUNION_LON REUNION_TYPE REUNION_WIND REUNION_PRES REUNION_TNUM REUNION_CI REUNION_RMW REUNION_R34_NE REUNION_R34_SE REUNION_R34_SW REUNION_R34_NW REUNION_R50_NE REUNION_R50_SE REUNION_R50_SW REUNION_R50_NW REUNION_R64_NE REUNION_R64_SE REUNION_R64_SW REUNION_R64_NW BOM_LAT BOM_LON BOM_TYPE BOM_WIND BOM_PRES BOM_TNUM BOM_CI BOM_RMW BOM_R34_NE BOM_R34_SE BOM_R34_SW BOM_R34_NW BOM_R50_NE BOM_R50_SE BOM_R50_SW BOM_R50_NW BOM_R64_NE BOM_R64_SE BOM_R64_SW BOM_R64_NW BOM_ROCI BOM_POCI BOM_EYE BOM_POS_METHOD BOM_PRES_METHOD NADI_LAT NADI_LON NADI_CAT NADI_WIND NADI_PRES WELLINGTON_LAT WELLINGTON_LON WELLINGTON_WIND WELLINGTON_PRES DS824_LAT DS824_LON DS824_STAGE DS824_WIND DS824_PRES TD9636_LAT TD9636_LON TD9636_STAGE TD9636_WIND TD9636_PRES TD9635_LAT TD9635_LON TD9635_WIND TD9635_PRES TD9635_ROCI NEUMANN_LAT NEUMANN_LON NEUMANN_CLASS NEUMANN_WIND NEUMANN_PRES MLC_LAT MLC_LON MLC_CLASS MLC_WIND MLC_PRES USA_GUST BOM_GUST BOM_GUST_PER REUNION_GUST REUNION_GUST_PER USA_SEAHGT USA_SEARAD_NE USA_SEARAD_SE USA_SEARAD_SW USA_SEARAD_NW STORM_SPEED STORM_DIR
1955012S15120 1955 6 SI WA NOT_NAMED 1955-01-11 23:00:00 NR -15.1000 119.900 main 340 333 __________O___ -1 -15.1000 119.900 7 6 184
1955012S15120 1955 6 SI WA NOT_NAMED 1955-01-12 00:00:00 TS -15.2044 119.888 main 333 321 O________OP___ jtwc_sh SH091955 -15.2000 119.900 -1 -15.2000 119.900 TC -15.2089 119.876 7 6 194
1955012S15120 1955 6 SI WA NOT_NAMED 1955-01-12 03:00:00 TS -15.5109 119.792 main 321 309 P________PP___ SH091955 -15.4925 119.783 -1 -15.4925 119.783 TC -15.5353 119.806 7 6 195
1955012S15120 1955 6 SI WA NOT_NAMED 1955-01-12 06:00:00 TS -15.8244 119.719 main 313 298 O________OP___ jtwc_sh SH091955 -15.8000 119.700 -1 -15.8000 119.700 TC -15.8609 119.747 7 7 188
1955012S15120 1955 6 SI WA NOT_NAMED 1955-01-12 09:00:00 TS -16.1517 119.688 main 293 284 P________PP___ SH091955 -16.1350 119.677 -1 -16.1350 119.677 TC -16.1850 119.709 7 7 183
1955012S15120 1955 6 SI WA NOT_NAMED 1955-01-12 11:00:00 TS -16.3833 119.693 main 284 280 P________PO___ SH091955 -16.3750 119.689 -1 -16.3750 119.689 TC -16.4000 119.700 7 7 176
1955012S15120 1955 6 SI WA NOT_NAMED 1955-01-12 12:00:00 TS -16.5024 119.700 main 280 270 O________OP___ jtwc_sh SH091955 -16.5000 119.700 -1 -16.5000 119.700 TC -16.5073 119.701 7 7 176
1955012S15120 1955 6 SI WA NOT_NAMED 1955-01-12 15:00:00 TS -16.8697 119.728 main 266 248 P________PP___ SH091955 -16.8850 119.728 -1 -16.8850 119.728 TC -16.8390 119.729 7 8 173
1955012S15120 1955 6 SI WA NOT_NAMED 1955-01-12 18:00:00 TS -17.2700 119.798 main 246 215 O________OP___ jtwc_sh SH091955 -17.3000 119.800 -1 -17.3000 119.800 TC -17.2099 119.795 7 8 167
1955012S15120 1955 6 SI WA NOT_NAMED 1955-01-12 21:00:00 TS -17.6821 119.920 main 215 191 P________PP___ SH091955 -17.6975 119.928 -1 -17.6975 119.928 TC -17.6512 119.903 7 9 164
1955012S15120 1955 6 SI WA NOT_NAMED 1955-01-12 23:00:00 TS -18.0087 120.026 main 191 174 P________PO___ SH091955 -18.0131 120.039 -1 -18.0131 120.039 TC -18.0000 120.000 7 11 163
1955012S15120 1955 6 SI WA NOT_NAMED 1955-01-13 00:00:00 TS -18.2027 120.085 main 174 98 O________OP___ jtwc_sh SH091955 -18.2000 120.100 -1 -18.2000 120.100 TC -18.2080 120.055 7 14 165
1955012S15120 1955 6 SI WA NOT_NAMED 1955-01-13 03:00:00 TS -18.9109 120.274 main 98 22 P________PP___ SH091955 -18.9125 120.285 -1 -18.9125 120.285 TC -18.9076 120.252 7 15 165
1955012S15120 1955 6 SI WA NOT_NAMED 1955-01-13 06:00:00 TS -19.6899 120.495 main 11 0 O________OP___ jtwc_sh SH091955 -19.7000 120.500 -1 -19.7000 120.500 TC -19.6696 120.484 7 16 164
1955012S15120 1955 6 SI WA NOT_NAMED 1955-01-13 09:00:00 TS -20.4295 120.745 main 0 0 P________PP___ SH091955 -20.4300 120.750 -1 -20.4300 120.750 TC -20.4284 120.734 7 15 162
1955012S15120 1955 6 SI WA NOT_NAMED 1955-01-13 11:00:00 TS -20.8910 120.913 main 0 0 P________PO___ SH091955 -20.8864 120.920 -1 -20.8864 120.920 TC -20.9000 120.900 7 14 161
1955012S15120 1955 6 SI WA NOT_NAMED 1955-01-13 12:00:00 TS -21.1043 120.997 main 0 0 O________OP___ jtwc_sh SH091955 -21.1000 121.000 -1 -21.1000 121.000 TC -21.1129 120.991 7 13 160
1955012S15120 1955 6 SI WA NOT_NAMED 1955-01-13 15:00:00 TS -21.6956 121.223 main 0 0 P________PP___ SH091955 -21.6874 121.200 -1 -21.6874 121.200 TC -21.7121 121.270 7 12 160
1955012S15120 1955 6 SI WA NOT_NAMED 1955-01-13 18:00:00 TS -22.2166 121.442 main 0 0 O________OP___ jtwc_sh SH091955 -22.2000 121.400 -1 -22.2000 121.400 TC -22.2497 121.527 7 11 156
1955012S15120 1955 6 SI WA NOT_NAMED 1955-01-13 21:00:00 TS -22.6992 121.699 main 0 0 P________PP___ SH091955 -22.6876 121.687 -1 -22.6876 121.687 TC -22.7224 121.724 7 10 155
1955012S15120 1955 6 SI WA NOT_NAMED 1955-01-13 23:00:00 TS -22.9816 121.832 main 0 0 P________PO___ SH091955 -22.9724 121.848 -1 -22.9724 121.848 TC -23.0000 121.800 7 9 159
1955012S15120 1955 6 SI WA NOT_NAMED 1955-01-14 00:00:00 TS -23.1067 121.874 main 0 0 O________OP___ jtwc_sh SH091955 -23.1000 121.900 -1 -23.1000 121.900 TC -23.1202 121.822 7 7 173
1955012S15120 1955 6 SI WA NOT_NAMED 1955-01-14 03:00:00 TS -23.4189 121.890 main 0 0 P________PP___ SH091955 -23.4149 121.925 -1 -23.4149 121.925 TC -23.4271 121.818 7 6 189
1955012S15120 1955 6 SI WA NOT_NAMED 1955-01-14 06:00:00 TS -23.6984 121.775 main 0 0 O________OP___ jtwc_sh SH091955 -23.7000 121.800 -1 -23.7000 121.800 TC -23.6952 121.724 7 7 206
1955012S15120 1955 6 SI WA NOT_NAMED 1955-01-14 09:00:00 TS -24.0059 121.580 main 0 0 P________PP___ SH091955 -24.0200 121.595 -1 -24.0200 121.595 TC -23.9776 121.552 7 8 212
1955012S15120 1955 6 SI WA NOT_NAMED 1955-01-14 11:00:00 TS -24.2424 121.403 main 0 0 P________PO___ SH091955 -24.2636 121.405 -1 -24.2636 121.405 TC -24.2000 121.400 7 9 214
1955012S15120 1955 6 SI WA NOT_NAMED 1955-01-14 12:00:00 TS -24.3817 121.305 main 0 0 O________OP___ jtwc_sh SH091955 -24.4000 121.300 -1 -24.4000 121.300 TC -24.3450 121.316 7 11 212
1955012S15120 1955 6 SI WA NOT_NAMED 1955-01-14 15:00:00 TS -24.8653 120.976 main 0 0 P________PP___ SH091955 -24.8851 120.958 -1 -24.8851 120.958 TC -24.8259 121.013 7 12 212
1955012S15120 1955 6 SI WA NOT_NAMED 1955-01-14 18:00:00 TS -25.3822 120.621 main 0 0 O________OP___ jtwc_sh SH091955 -25.4000 120.600 -1 -25.4000 120.600 TC -25.3465 120.664 7 12 212
1955012S15120 1955 6 SI WA NOT_NAMED 1955-01-14 21:00:00 TS -25.8663 120.289 main 0 0 P________PP___ SH091955 -25.8650 120.277 -1 -25.8650 120.277 TC -25.8690 120.313 7 11 211
1955012S15120 1955 6 SI WA NOT_NAMED 1955-01-14 23:00:00 TS -26.1722 120.091 main 0 0 P________PO___ SH091955 -26.1583 120.086 -1 -26.1583 120.086 TC -26.2000 120.100 7 10 210
1955012S15120 1955 6 SI WA NOT_NAMED 1955-01-15 00:00:00 TS -26.3135 120.004 main 0 0 O________OP___ jtwc_sh SH091955 -26.3000 120.000 -1 -26.3000 120.000 TC -26.3405 120.012 7 9 207
1955012S15120 1955 6 SI WA NOT_NAMED 1955-01-15 03:00:00 TS -26.7124 119.782 main 0 0 P________PP___ SH091955 -26.6999 119.785 -1 -26.6999 119.785 TC -26.7374 119.776 7 9 205
1955012S15120 1955 6 SI WA NOT_NAMED 1955-01-15 06:00:00 TS -27.1065 119.592 main 0 0 O________OP___ jtwc_sh SH091955 -27.1000 119.600 -1 -27.1000 119.600 TC -27.1196 119.575 7 9 203
1955012S15120 1955 6 SI WA NOT_NAMED 1955-01-15 09:00:00 TS -27.5284 119.391 main 0 0 P________PP___ SH091955 -27.5350 119.385 -1 -27.5350 119.385 TC -27.5151 119.402 7 9 202
1955012S15120 1955 6 SI WA NOT_NAMED 1955-01-15 11:00:00 TS -27.8278 119.270 main 0 0 P________PO___ SH091955 -27.8417 119.255 -1 -27.8417 119.255 TC -27.8000 119.300 7 10 198
1955012S15120 1955 6 SI WA NOT_NAMED 1955-01-15 12:00:00 TS -27.9807 119.221 main 0 0 O________OP___ jtwc_sh SH091955 -28.0000 119.200 -1 -28.0000 119.200 TC -27.9516 119.252 7 10 194
1955012S15120 1955 6 SI WA NOT_NAMED 1955-01-15 15:00:00 TS -28.4667 119.099 main 0 0 P________PP___ SH091955 -28.4925 119.080 -1 -28.4925 119.080 TC -28.4409 119.117 7 10 191
1955012S15120 1955 6 SI WA NOT_NAMED 1955-01-15 18:00:00 TS -28.9821 118.996 main 0 0 O________OP___ jtwc_sh SH091955 -29.0000 119.000 -1 -29.0000 119.000 TC -28.9701 118.994 7 11 190
1955012S15120 1955 6 SI WA NOT_NAMED 1955-01-15 21:00:00 NR -29.5242 118.877 main 0 0 __________P___ SH091955 -1 TC -29.5242 118.877 7 11 191
1955012S15120 1955 6 SI WA NOT_NAMED 1955-01-15 23:00:00 NR -29.9000 118.800 main 0 __________O___ SH091955 -1 TC -29.9000 118.800 7 11 190

IBTrACS Databaseについて

本データベースは、米国NOAAが公開する1842年以降の世界の熱帯低気圧のベストトラックデータアーカイブInternational Best Track Archive for Climate Stewardship (IBTrACS)を、ウェブで閲覧しやすい形式に変換したものです。

最終更新日:2021-10-21